sensor_id;sensor_type;location;lat;lon;timestamp;pressure;altitude;pressure_sealevel;temperature;humidity
2184;BME280;1098;48.940;8.962;2023-04-27T00:02:01;98620.94;;;8.30;100.00
2184;BME280;1098;48.940;8.962;2023-04-27T00:04:29;98626.34;;;8.10;100.00
2184;BME280;1098;48.940;8.962;2023-04-27T00:06:58;98624.88;;;8.27;100.00
2184;BME280;1098;48.940;8.962;2023-04-27T00:09:28;98629.03;;;8.30;100.00
2184;BME280;1098;48.940;8.962;2023-04-27T00:11:58;98624.69;;;8.35;100.00
2184;BME280;1098;48.940;8.962;2023-04-27T00:14:27;98620.13;;;8.16;100.00
2184;BME280;1098;48.940;8.962;2023-04-27T00:16:55;98620.94;;;8.16;100.00
2184;BME280;1098;48.940;8.962;2023-04-27T00:19:24;98611.84;;;8.11;100.00
2184;BME280;1098;48.940;8.962;2023-04-27T00:21:52;98612.28;;;7.88;100.00
2184;BME280;1098;48.940;8.962;2023-04-27T00:24:20;98620.94;;;8.16;100.00
2184;BME280;1098;48.940;8.962;2023-04-27T00:26:48;98613.09;;;8.15;100.00
2184;BME280;1098;48.940;8.962;2023-04-27T00:29:19;98611.44;;;8.27;100.00
2184;BME280;1098;48.940;8.962;2023-04-27T00:31:47;98603.56;;;8.32;100.00
2184;BME280;1098;48.940;8.962;2023-04-27T00:34:15;98611.84;;;8.24;100.00
2184;BME280;1098;48.940;8.962;2023-04-27T00:36:48;98610.41;;;7.95;100.00
2184;BME280;1098;48.940;8.962;2023-04-27T00:39:19;98603.56;;;7.79;100.00
2184;BME280;1098;48.940;8.962;2023-04-27T00:41:47;98600.66;;;8.20;100.00
2184;BME280;1098;48.940;8.962;2023-04-27T00:44:22;98603.59;;;7.86;100.00
2184;BME280;1098;48.940;8.962;2023-04-27T00:46:51;98601.50;;;7.81;100.00
2184;BME280;1098;48.940;8.962;2023-04-27T00:49:19;98604.59;;;7.78;100.00
2184;BME280;1098;48.940;8.962;2023-04-27T00:51:49;98596.53;;;7.98;100.00
2184;BME280;1098;48.940;8.962;2023-04-27T00:54:18;98592.81;;;7.73;100.00
2184;BME280;1098;48.940;8.962;2023-04-27T00:56:50;98593.84;;;8.05;100.00
2184;BME280;1098;48.940;8.962;2023-04-27T00:59:19;98593.84;;;7.85;100.00
2184;BME280;1098;48.940;8.962;2023-04-27T01:01:47;98591.97;;;7.99;100.00
2184;BME280;1098;48.940;8.962;2023-04-27T01:04:18;98600.47;;;7.82;100.00
2184;BME280;1098;48.940;8.962;2023-04-27T01:06:46;98598.00;;;7.68;100.00
2184;BME280;1098;48.940;8.962;2023-04-27T01:09:15;98608.72;;;7.61;100.00
2184;BME280;1098;48.940;8.962;2023-04-27T01:11:48;98608.09;;;7.72;100.00
2184;BME280;1098;48.940;8.962;2023-04-27T01:14:16;98604.19;;;8.01;100.00
2184;BME280;1098;48.940;8.962;2023-04-27T01:16:45;98596.53;;;7.85;100.00
2184;BME280;1098;48.940;8.962;2023-04-27T01:19:13;98599.44;;;7.97;100.00
2184;BME280;1098;48.940;8.962;2023-04-27T01:21:42;98597.78;;;7.89;100.00
2184;BME280;1098;48.940;8.962;2023-04-27T01:24:11;98606.06;;;7.87;100.00
2184;BME280;1098;48.940;8.962;2023-04-27T01:26:39;98603.78;;;7.98;100.00
2184;BME280;1098;48.940;8.962;2023-04-27T01:29:09;98607.72;;;7.69;100.00
2184;BME280;1098;48.940;8.962;2023-04-27T01:31:37;98612.69;;;7.78;100.00
2184;BME280;1098;48.940;8.962;2023-04-27T01:34:05;98612.03;;;7.56;100.00
2184;BME280;1098;48.940;8.962;2023-04-27T01:36:33;98606.88;;;7.68;100.00
2184;BME280;1098;48.940;8.962;2023-04-27T01:39:02;98606.84;;;7.55;100.00
2184;BME280;1098;48.940;8.962;2023-04-27T01:41:36;98610.38;;;7.55;100.00
2184;BME280;1098;48.940;8.962;2023-04-27T01:44:04;98601.91;;;7.65;100.00
2184;BME280;1098;48.940;8.962;2023-04-27T01:46:32;98609.56;;;7.81;100.00
2184;BME280;1098;48.940;8.962;2023-04-27T01:49:00;98601.09;;;7.84;100.00
2184;BME280;1098;48.940;8.962;2023-04-27T01:51:28;98605.19;;;7.54;100.00
2184;BME280;1098;48.940;8.962;2023-04-27T01:53:56;98605.41;;;7.72;100.00
2184;BME280;1098;48.940;8.962;2023-04-27T01:56:24;98606.88;;;7.81;100.00
2184;BME280;1098;48.940;8.962;2023-04-27T01:58:56;98612.47;;;7.67;100.00
2184;BME280;1098;48.940;8.962;2023-04-27T02:01:24;98618.03;;;7.72;100.00
2184;BME280;1098;48.940;8.962;2023-04-27T02:03:52;98614.53;;;7.71;100.00
2184;BME280;1098;48.940;8.962;2023-04-27T02:06:20;98614.94;;;7.75;100.00
2184;BME280;1098;48.940;8.962;2023-04-27T02:08:50;98613.06;;;7.55;100.00
2184;BME280;1098;48.940;8.962;2023-04-27T02:11:18;98619.03;;;7.51;100.00
2184;BME280;1098;48.940;8.962;2023-04-27T02:13:46;98618.06;;;7.78;100.00
2184;BME280;1098;48.940;8.962;2023-04-27T02:16:16;98611.22;;;7.76;100.00
2184;BME280;1098;48.940;8.962;2023-04-27T02:18:46;98613.94;;;7.82;100.00
2184;BME280;1098;48.940;8.962;2023-04-27T02:21:15;98613.31;;;7.80;100.00
2184;BME280;1098;48.940;8.962;2023-04-27T02:23:43;98621.97;;;7.63;100.00
2184;BME280;1098;48.940;8.962;2023-04-27T02:26:14;98624.84;;;7.48;100.00
2184;BME280;1098;48.940;8.962;2023-04-27T02:28:43;98621.72;;;7.51;100.00
2184;BME280;1098;48.940;8.962;2023-04-27T02:31:12;98631.09;;;7.75;100.00
2184;BME280;1098;48.940;8.962;2023-04-27T02:33:42;98622.41;;;7.66;100.00
2184;BME280;1098;48.940;8.962;2023-04-27T02:36:10;98626.72;;;7.74;100.00
2184;BME280;1098;48.940;8.962;2023-04-27T02:38:38;98629.00;;;7.57;100.00
2184;BME280;1098;48.940;8.962;2023-04-27T02:41:06;98634.09;;;7.32;100.00
2184;BME280;1098;48.940;8.962;2023-04-27T02:43:34;98636.88;;;7.65;100.00
2184;BME280;1098;48.940;8.962;2023-04-27T02:46:04;98632.16;;;7.87;100.00
2184;BME280;1098;48.940;8.962;2023-04-27T02:48:32;98636.06;;;7.98;100.00
2184;BME280;1098;48.940;8.962;2023-04-27T02:51:05;98637.31;;;8.02;100.00
2184;BME280;1098;48.940;8.962;2023-04-27T02:53:33;98634.97;;;7.46;100.00
2184;BME280;1098;48.940;8.962;2023-04-27T02:56:02;98632.50;;;7.44;100.00
2184;BME280;1098;48.940;8.962;2023-04-27T02:58:32;98629.84;;;7.77;100.00
2184;BME280;1098;48.940;8.962;2023-04-27T03:01:02;98624.25;;;7.59;100.00
2184;BME280;1098;48.940;8.962;2023-04-27T03:03:30;98628.59;;;7.73;100.00
2184;BME280;1098;48.940;8.962;2023-04-27T03:05:59;98627.38;;;7.82;100.00
2184;BME280;1098;48.940;8.962;2023-04-27T03:08:28;98629.66;;;8.18;100.00
2184;BME280;1098;48.940;8.962;2023-04-27T03:10:57;98640.59;;;7.71;100.00
2184;BME280;1098;48.940;8.962;2023-04-27T03:13:25;98635.03;;;7.79;100.00
2184;BME280;1098;48.940;8.962;2023-04-27T03:15:53;98629.66;;;7.99;100.00
2184;BME280;1098;48.940;8.962;2023-04-27T03:18:21;98632.56;;;7.84;100.00
2184;BME280;1098;48.940;8.962;2023-04-27T03:20:49;98632.97;;;7.87;100.00
2184;BME280;1098;48.940;8.962;2023-04-27T03:23:20;98632.53;;;7.90;100.00
2184;BME280;1098;48.940;8.962;2023-04-27T03:25:52;98630.91;;;7.89;100.00
2184;BME280;1098;48.940;8.962;2023-04-27T03:28:21;98620.13;;;7.76;100.00
2184;BME280;1098;48.940;8.962;2023-04-27T03:30:50;98630.47;;;7.92;100.00
2184;BME280;1098;48.940;8.962;2023-04-27T03:33:18;98626.09;;;7.72;100.00
2184;BME280;1098;48.940;8.962;2023-04-27T03:35:53;98634.22;;;7.85;100.00
2184;BME280;1098;48.940;8.962;2023-04-27T03:38:21;98639.56;;;7.78;100.00
2184;BME280;1098;48.940;8.962;2023-04-27T03:40:49;98634.81;;;7.74;100.00
2184;BME280;1098;48.940;8.962;2023-04-27T03:43:21;98629.94;;;7.30;100.00
2184;BME280;1098;48.940;8.962;2023-04-27T03:45:50;98639.94;;;7.55;100.00
2184;BME280;1098;48.940;8.962;2023-04-27T03:48:18;98644.75;;;7.67;100.00
2184;BME280;1098;48.940;8.962;2023-04-27T03:50:48;98641.78;;;7.42;100.00
2184;BME280;1098;48.940;8.962;2023-04-27T03:53:16;98640.34;;;7.46;100.00
2184;BME280;1098;48.940;8.962;2023-04-27T03:55:45;98646.13;;;7.49;100.00
2184;BME280;1098;48.940;8.962;2023-04-27T03:58:15;98632.91;;;7.48;100.00
2184;BME280;1098;48.940;8.962;2023-04-27T04:01:08;98637.63;;;7.26;100.00
2184;BME280;1098;48.940;8.962;2023-04-27T04:03:37;98638.00;;;7.30;100.00
2184;BME280;1098;48.940;8.962;2023-04-27T04:06:07;98636.72;;;7.12;100.00
2184;BME280;1098;48.940;8.962;2023-04-27T04:08:35;98630.72;;;7.10;100.00
2184;BME280;1098;48.940;8.962;2023-04-27T04:11:03;98631.50;;;6.98;100.00
2184;BME280;1098;48.940;8.962;2023-04-27T04:13:32;98632.34;;;6.98;100.00
2184;BME280;1098;48.940;8.962;2023-04-27T04:16:02;98643.88;;;6.92;100.00
2184;BME280;1098;48.940;8.962;2023-04-27T04:18:32;98651.69;;;6.87;100.00
2184;BME280;1098;48.940;8.962;2023-04-27T04:21:01;98646.13;;;6.82;100.00
2184;BME280;1098;48.940;8.962;2023-04-27T04:23:29;98650.16;;;6.71;100.00
2184;BME280;1098;48.940;8.962;2023-04-27T04:25:58;98643.88;;;6.92;100.00
2184;BME280;1098;48.940;8.962;2023-04-27T04:28:32;98658.81;;;7.08;100.00
2184;BME280;1098;48.940;8.962;2023-04-27T04:31:00;98653.16;;;7.37;100.00
2184;BME280;1098;48.940;8.962;2023-04-27T04:33:28;98650.50;;;7.57;100.00
2184;BME280;1098;48.940;8.962;2023-04-27T04:35:58;98650.44;;;7.31;100.00
2184;BME280;1098;48.940;8.962;2023-04-27T04:38:26;98650.97;;;7.13;100.00
2184;BME280;1098;48.940;8.962;2023-04-27T04:40:55;98648.69;;;7.10;100.00
2184;BME280;1098;48.940;8.962;2023-04-27T04:43:23;98648.81;;;7.43;100.00
2184;BME280;1098;48.940;8.962;2023-04-27T04:45:51;98651.59;;;7.82;100.00
2184;BME280;1098;48.940;8.962;2023-04-27T04:48:19;98643.28;;;7.77;100.00
2184;BME280;1098;48.940;8.962;2023-04-27T04:50:48;98645.16;;;7.90;100.00
2184;BME280;1098;48.940;8.962;2023-04-27T04:53:18;98635.66;;;8.01;100.00
2184;BME280;1098;48.940;8.962;2023-04-27T04:55:47;98644.97;;;8.05;100.00
2184;BME280;1098;48.940;8.962;2023-04-27T04:58:15;98650.47;;;7.50;100.00
2184;BME280;1098;48.940;8.962;2023-04-27T05:00:43;98651.41;;;8.04;100.00
2184;BME280;1098;48.940;8.962;2023-04-27T05:03:11;98652.03;;;8.06;100.00
2184;BME280;1098;48.940;8.962;2023-04-27T05:05:39;98657.75;;;7.70;100.00
2184;BME280;1098;48.940;8.962;2023-04-27T05:08:07;98651.16;;;7.72;100.00
2184;BME280;1098;48.940;8.962;2023-04-27T05:10:37;98660.06;;;7.05;100.00
2184;BME280;1098;48.940;8.962;2023-04-27T05:13:05;98650.91;;;6.93;100.00
2184;BME280;1098;48.940;8.962;2023-04-27T05:15:33;98658.97;;;6.93;100.00
2184;BME280;1098;48.940;8.962;2023-04-27T05:18:01;98660.78;;;6.86;100.00
2184;BME280;1098;48.940;8.962;2023-04-27T05:20:29;98667.16;;;7.19;100.00
2184;BME280;1098;48.940;8.962;2023-04-27T05:22:57;98667.22;;;7.39;100.00
2184;BME280;1098;48.940;8.962;2023-04-27T05:25:28;98665.94;;;7.35;100.00
2184;BME280;1098;48.940;8.962;2023-04-27T05:27:58;98662.25;;;7.43;100.00
2184;BME280;1098;48.940;8.962;2023-04-27T05:30:26;98665.41;;;7.73;100.00
2184;BME280;1098;48.940;8.962;2023-04-27T05:32:54;98661.53;;;8.15;100.00
2184;BME280;1098;48.940;8.962;2023-04-27T05:35:22;98659.47;;;8.37;100.00
2184;BME280;1098;48.940;8.962;2023-04-27T05:37:51;98662.78;;;8.19;100.00
2184;BME280;1098;48.940;8.962;2023-04-27T05:40:19;98666.31;;;8.26;100.00
2184;BME280;1098;48.940;8.962;2023-04-27T05:42:47;98674.16;;;8.08;100.00
2184;BME280;1098;48.940;8.962;2023-04-27T05:45:16;98671.88;;;8.05;100.00
2184;BME280;1098;48.940;8.962;2023-04-27T05:47:45;98679.75;;;8.00;100.00
2184;BME280;1098;48.940;8.962;2023-04-27T05:50:13;98674.78;;;8.16;100.00
2184;BME280;1098;48.940;8.962;2023-04-27T05:52:41;98680.81;;;8.51;100.00
2184;BME280;1098;48.940;8.962;2023-04-27T05:55:09;98686.59;;;8.22;100.00
2184;BME280;1098;48.940;8.962;2023-04-27T05:57:37;98692.56;;;7.91;100.00
2184;BME280;1098;48.940;8.962;2023-04-27T06:00:08;98689.88;;;7.91;100.00
2184;BME280;1098;48.940;8.962;2023-04-27T06:02:40;98691.72;;;7.90;100.00
2184;BME280;1098;48.940;8.962;2023-04-27T06:05:08;98697.16;;;8.10;100.00
2184;BME280;1098;48.940;8.962;2023-04-27T06:07:39;98688.25;;;8.56;100.00
2184;BME280;1098;48.940;8.962;2023-04-27T06:10:09;98698.00;;;8.37;100.00
2184;BME280;1098;48.940;8.962;2023-04-27T06:12:38;98693.41;;;8.18;100.00
2184;BME280;1098;48.940;8.962;2023-04-27T06:15:06;98688.25;;;8.30;100.00
2184;BME280;1098;48.940;8.962;2023-04-27T06:17:35;98701.09;;;8.60;100.00
2184;BME280;1098;48.940;8.962;2023-04-27T06:20:05;98695.06;;;9.43;100.00
2184;BME280;1098;48.940;8.962;2023-04-27T06:22:35;98695.47;;;8.82;100.00
2184;BME280;1098;48.940;8.962;2023-04-27T06:25:03;98689.19;;;9.08;100.00
2184;BME280;1098;48.940;8.962;2023-04-27T06:27:32;98687.50;;;9.58;100.00
2184;BME280;1098;48.940;8.962;2023-04-27T06:30:00;98688.44;;;9.39;100.00
2184;BME280;1098;48.940;8.962;2023-04-27T06:32:29;98691.31;;;8.92;100.00
2184;BME280;1098;48.940;8.962;2023-04-27T06:34:57;98698.16;;;9.40;100.00
2184;BME280;1098;48.940;8.962;2023-04-27T06:37:26;98706.13;;;9.15;100.00
2184;BME280;1098;48.940;8.962;2023-04-27T06:39:54;98700.53;;;9.16;100.00
2184;BME280;1098;48.940;8.962;2023-04-27T06:42:22;98700.66;;;9.79;100.00
2184;BME280;1098;48.940;8.962;2023-04-27T06:44:53;98701.66;;;9.91;100.00
2184;BME280;1098;48.940;8.962;2023-04-27T06:47:21;98697.25;;;9.97;100.00
2184;BME280;1098;48.940;8.962;2023-04-27T06:49:49;98703.47;;;9.97;100.00
2184;BME280;1098;48.940;8.962;2023-04-27T06:52:17;98713.13;;;9.80;100.00
2184;BME280;1098;48.940;8.962;2023-04-27T06:54:47;98708.59;;;9.74;100.00
2184;BME280;1098;48.940;8.962;2023-04-27T06:57:15;98711.03;;;9.82;100.00
2184;BME280;1098;48.940;8.962;2023-04-27T06:59:43;98715.88;;;9.74;100.00
2184;BME280;1098;48.940;8.962;2023-04-27T07:02:11;98712.13;;;9.75;100.00
2184;BME280;1098;48.940;8.962;2023-04-27T07:04:40;98713.75;;;10.14;100.00
2184;BME280;1098;48.940;8.962;2023-04-27T07:07:09;98715.50;;;10.33;100.00
2184;BME280;1098;48.940;8.962;2023-04-27T07:09:37;98714.88;;;9.99;100.00
2184;BME280;1098;48.940;8.962;2023-04-27T07:12:06;98705.56;;;10.27;100.00
2184;BME280;1098;48.940;8.962;2023-04-27T07:14:35;98708.75;;;10.67;100.00
2184;BME280;1098;48.940;8.962;2023-04-27T07:17:03;98705.19;;;10.48;100.00
2184;BME280;1098;48.940;8.962;2023-04-27T07:19:31;98699.88;;;10.60;100.00
2184;BME280;1098;48.940;8.962;2023-04-27T07:21:59;98695.47;;;10.65;100.00
2184;BME280;1098;48.940;8.962;2023-04-27T07:24:27;98699.97;;;10.96;100.00
2184;BME280;1098;48.940;8.962;2023-04-27T07:26:55;98706.47;;;11.44;100.00
2184;BME280;1098;48.940;8.962;2023-04-27T07:29:26;98705.13;;;11.53;100.00
2184;BME280;1098;48.940;8.962;2023-04-27T07:31:55;98702.44;;;11.34;100.00
2184;BME280;1098;48.940;8.962;2023-04-27T07:34:23;98702.72;;;12.34;100.00
2184;BME280;1098;48.940;8.962;2023-04-27T07:36:51;98702.78;;;12.04;100.00
2184;BME280;1098;48.940;8.962;2023-04-27T07:39:20;98703.94;;;12.85;100.00
2184;BME280;1098;48.940;8.962;2023-04-27T07:41:49;98711.59;;;12.53;100.00
2184;BME280;1098;48.940;8.962;2023-04-27T07:44:17;98704.34;;;11.82;100.00
2184;BME280;1098;48.940;8.962;2023-04-27T07:46:47;98700.16;;;12.51;100.00
2184;BME280;1098;48.940;8.962;2023-04-27T07:49:15;98708.41;;;12.56;100.00
2184;BME280;1098;48.940;8.962;2023-04-27T07:51:44;98700.75;;;11.52;100.00
2184;BME280;1098;48.940;8.962;2023-04-27T07:54:12;98701.66;;;11.82;100.00
2184;BME280;1098;48.940;8.962;2023-04-27T07:56:41;98691.88;;;12.23;100.00
2184;BME280;1098;48.940;8.962;2023-04-27T07:59:09;98698.94;;;11.82;100.00
2184;BME280;1098;48.940;8.962;2023-04-27T08:01:38;98701.75;;;12.29;100.00
2184;BME280;1098;48.940;8.962;2023-04-27T08:04:08;98701.34;;;13.02;100.00
2184;BME280;1098;48.940;8.962;2023-04-27T08:06:38;98706.84;;;12.37;100.00
2184;BME280;1098;48.940;8.962;2023-04-27T08:09:07;98706.78;;;12.14;100.00
2184;BME280;1098;48.940;8.962;2023-04-27T08:11:36;98696.50;;;13.27;100.00
2184;BME280;1098;48.940;8.962;2023-04-27T08:14:04;98695.34;;;12.77;100.00
2184;BME280;1098;48.940;8.962;2023-04-27T08:16:34;98695.09;;;12.78;100.00
2184;BME280;1098;48.940;8.962;2023-04-27T08:19:02;98697.28;;;12.23;100.00
2184;BME280;1098;48.940;8.962;2023-04-27T08:21:34;98694.91;;;12.26;100.00
2184;BME280;1098;48.940;8.962;2023-04-27T08:24:05;98680.22;;;13.16;100.00
2184;BME280;1098;48.940;8.962;2023-04-27T08:26:33;98682.81;;;12.52;100.00
2184;BME280;1098;48.940;8.962;2023-04-27T08:29:02;98691.09;;;12.81;100.00
2184;BME280;1098;48.940;8.962;2023-04-27T08:31:49;98685.03;;;13.14;100.00
2184;BME280;1098;48.940;8.962;2023-04-27T08:34:20;98678.47;;;13.90;100.00
2184;BME280;1098;48.940;8.962;2023-04-27T08:36:52;98683.75;;;13.16;100.00
2184;BME280;1098;48.940;8.962;2023-04-27T08:39:23;98680.63;;;13.48;100.00
2184;BME280;1098;48.940;8.962;2023-04-27T08:41:51;98681.41;;;12.96;100.00
2184;BME280;1098;48.940;8.962;2023-04-27T08:44:19;98675.00;;;13.37;100.00
2184;BME280;1098;48.940;8.962;2023-04-27T08:46:47;98677.66;;;13.89;100.00
2184;BME280;1098;48.940;8.962;2023-04-27T08:49:16;98671.41;;;14.39;100.00
2184;BME280;1098;48.940;8.962;2023-04-27T08:51:45;98669.91;;;14.15;100.00
2184;BME280;1098;48.940;8.962;2023-04-27T08:54:14;98670.34;;;14.90;100.00
2184;BME280;1098;48.940;8.962;2023-04-27T08:56:42;98670.59;;;14.89;100.00
2184;BME280;1098;48.940;8.962;2023-04-27T08:59:14;98669.78;;;14.88;100.00
2184;BME280;1098;48.940;8.962;2023-04-27T09:01:43;98672.13;;;14.63;100.00
2184;BME280;1098;48.940;8.962;2023-04-27T09:04:12;98676.81;;;14.34;100.00
2184;BME280;1098;48.940;8.962;2023-04-27T09:06:41;98674.53;;;14.98;100.00
2184;BME280;1098;48.940;8.962;2023-04-27T09:09:09;98677.72;;;14.56;100.00
2184;BME280;1098;48.940;8.962;2023-04-27T09:11:49;98677.91;;;15.05;100.00
2184;BME280;1098;48.940;8.962;2023-04-27T09:14:18;98677.28;;;14.31;100.00
2184;BME280;1098;48.940;8.962;2023-04-27T09:16:52;98679.22;;;14.47;100.00
2184;BME280;1098;48.940;8.962;2023-04-27T09:19:24;98680.44;;;13.94;100.00
2184;BME280;1098;48.940;8.962;2023-04-27T09:22:01;98676.81;;;14.51;100.00
2184;BME280;1098;48.940;8.962;2023-04-27T09:24:29;98675.25;;;14.71;100.00
2184;BME280;1098;48.940;8.962;2023-04-27T09:26:59;98683.97;;;14.73;100.00
2184;BME280;1098;48.940;8.962;2023-04-27T09:29:33;98673.84;;;15.07;100.00
2184;BME280;1098;48.940;8.962;2023-04-27T09:32:12;98686.28;;;14.65;100.00
2184;BME280;1098;48.940;8.962;2023-04-27T09:34:43;98683.31;;;15.43;100.00
2184;BME280;1098;48.940;8.962;2023-04-27T09:37:11;98672.06;;;15.57;100.00
2184;BME280;1098;48.940;8.962;2023-04-27T09:39:40;98684.44;;;15.26;100.00
2184;BME280;1098;48.940;8.962;2023-04-27T09:42:09;98676.69;;;14.96;91.89
2184;BME280;1098;48.940;8.962;2023-04-27T09:44:38;98683.94;;;15.94;100.00
2184;BME280;1098;48.940;8.962;2023-04-27T09:47:06;98676.03;;;15.49;89.06
2184;BME280;1098;48.940;8.962;2023-04-27T09:49:34;98671.59;;;15.43;100.00
2184;BME280;1098;48.940;8.962;2023-04-27T09:52:03;98667.91;;;15.54;100.00
2184;BME280;1098;48.940;8.962;2023-04-27T09:54:31;98658.72;;;15.82;92.99
2184;BME280;1098;48.940;8.962;2023-04-27T09:57:03;98662.81;;;14.75;87.51
2184;BME280;1098;48.940;8.962;2023-04-27T09:59:39;98666.72;;;14.85;89.52
2184;BME280;1098;48.940;8.962;2023-04-27T10:02:14;98658.81;;;15.65;87.29
2184;BME280;1098;48.940;8.962;2023-04-27T10:05:04;98658.16;;;16.07;87.05
2184;BME280;1098;48.940;8.962;2023-04-27T10:07:37;98662.44;;;15.98;81.34
2184;BME280;1098;48.940;8.962;2023-04-27T10:10:14;98658.06;;;16.98;94.53
2184;BME280;1098;48.940;8.962;2023-04-27T10:12:54;98659.59;;;16.78;92.57
2184;BME280;1098;48.940;8.962;2023-04-27T10:15:26;98653.50;;;17.66;82.96
2184;BME280;1098;48.940;8.962;2023-04-27T10:17:55;98658.19;;;17.91;92.49
2184;BME280;1098;48.940;8.962;2023-04-27T10:20:34;98657.47;;;17.48;100.00
2184;BME280;1098;48.940;8.962;2023-04-27T10:23:02;98660.00;;;17.02;91.06
2184;BME280;1098;48.940;8.962;2023-04-27T10:25:36;98655.34;;;16.98;99.38
2184;BME280;1098;48.940;8.962;2023-04-27T10:28:04;98654.44;;;17.39;93.35
2184;BME280;1098;48.940;8.962;2023-04-27T10:30:35;98654.19;;;16.20;88.49
2184;BME280;1098;48.940;8.962;2023-04-27T10:33:04;98654.63;;;16.43;75.37
2184;BME280;1098;48.940;8.962;2023-04-27T10:35:36;98659.50;;;16.36;98.33
2184;BME280;1098;48.940;8.962;2023-04-27T10:38:04;98638.09;;;16.55;100.00
2184;BME280;1098;48.940;8.962;2023-04-27T10:40:33;98635.44;;;17.70;88.10
2184;BME280;1098;48.940;8.962;2023-04-27T10:43:07;98646.09;;;17.09;84.42
2184;BME280;1098;48.940;8.962;2023-04-27T10:45:37;98647.38;;;17.43;81.20
2184;BME280;1098;48.940;8.962;2023-04-27T10:48:05;98642.28;;;17.10;76.35
2184;BME280;1098;48.940;8.962;2023-04-27T10:50:34;98647.06;;;16.82;75.06
2184;BME280;1098;48.940;8.962;2023-04-27T10:53:03;98655.91;;;16.31;75.12
2184;BME280;1098;48.940;8.962;2023-04-27T10:55:31;98649.19;;;16.11;74.69
2184;BME280;1098;48.940;8.962;2023-04-27T10:58:00;98648.50;;;15.94;76.67
2184;BME280;1098;48.940;8.962;2023-04-27T11:00:33;98642.63;;;16.39;78.61
2184;BME280;1098;48.940;8.962;2023-04-27T11:03:10;98643.22;;;16.78;79.62
2184;BME280;1098;48.940;8.962;2023-04-27T11:05:43;98642.81;;;17.07;75.65
2184;BME280;1098;48.940;8.962;2023-04-27T11:08:12;98638.63;;;16.89;77.34
2184;BME280;1098;48.940;8.962;2023-04-27T11:10:42;98635.28;;;16.77;73.50
2184;BME280;1098;48.940;8.962;2023-04-27T11:13:10;98633.38;;;16.77;71.26
2184;BME280;1098;48.940;8.962;2023-04-27T11:15:45;98640.22;;;16.85;72.97
2184;BME280;1098;48.940;8.962;2023-04-27T11:18:18;98631.97;;;18.00;100.00
2184;BME280;1098;48.940;8.962;2023-04-27T11:20:47;98627.34;;;18.46;99.78
2184;BME280;1098;48.940;8.962;2023-04-27T11:23:22;98616.41;;;18.66;88.88
2184;BME280;1098;48.940;8.962;2023-04-27T11:25:51;98618.53;;;18.84;71.06
2184;BME280;1098;48.940;8.962;2023-04-27T11:28:20;98630.91;;;17.28;74.30
2184;BME280;1098;48.940;8.962;2023-04-27T11:30:54;98637.44;;;16.75;73.43
2184;BME280;1098;48.940;8.962;2023-04-27T11:33:23;98629.75;;;17.97;80.64
2184;BME280;1098;48.940;8.962;2023-04-27T11:35:52;98631.72;;;18.42;78.66
2184;BME280;1098;48.940;8.962;2023-04-27T11:38:20;98631.72;;;18.27;74.56
2184;BME280;1098;48.940;8.962;2023-04-27T11:41:00;98636.34;;;18.36;84.05
2184;BME280;1098;48.940;8.962;2023-04-27T11:43:28;98626.78;;;18.39;77.41
2184;BME280;1098;48.940;8.962;2023-04-27T11:45:57;98621.28;;;18.74;93.20
2184;BME280;1098;48.940;8.962;2023-04-27T11:48:27;98624.03;;;18.13;70.37
2184;BME280;1098;48.940;8.962;2023-04-27T11:50:55;98619.38;;;18.04;70.86
2184;BME280;1098;48.940;8.962;2023-04-27T11:53:27;98616.66;;;18.44;67.36
2184;BME280;1098;48.940;8.962;2023-04-27T11:55:58;98623.75;;;18.35;65.84
2184;BME280;1098;48.940;8.962;2023-04-27T11:58:26;98610.78;;;17.55;71.03
2184;BME280;1098;48.940;8.962;2023-04-27T12:00:55;98607.63;;;18.13;76.32
2184;BME280;1098;48.940;8.962;2023-04-27T12:03:23;98606.66;;;16.84;76.19
2184;BME280;1098;48.940;8.962;2023-04-27T12:05:54;98596.59;;;17.58;79.45
2184;BME280;1098;48.940;8.962;2023-04-27T12:08:24;98601.06;;;17.11;76.79
2184;BME280;1098;48.940;8.962;2023-04-27T12:10:52;98614.47;;;16.66;75.80
2184;BME280;1098;48.940;8.962;2023-04-27T12:13:20;98603.88;;;16.74;76.79
2184;BME280;1098;48.940;8.962;2023-04-27T12:15:48;98594.34;;;17.39;85.80
2184;BME280;1098;48.940;8.962;2023-04-27T12:18:19;98590.28;;;17.42;79.08
2184;BME280;1098;48.940;8.962;2023-04-27T12:20:47;98599.00;;;17.49;77.94
2184;BME280;1098;48.940;8.962;2023-04-27T12:23:16;98583.00;;;17.83;76.60
2184;BME280;1098;48.940;8.962;2023-04-27T12:25:45;98584.09;;;18.33;77.41
2184;BME280;1098;48.940;8.962;2023-04-27T12:28:13;98589.25;;;18.90;70.44
2184;BME280;1098;48.940;8.962;2023-04-27T12:30:47;98583.78;;;18.80;78.47
2184;BME280;1098;48.940;8.962;2023-04-27T12:33:17;98589.59;;;18.28;75.17
2184;BME280;1098;48.940;8.962;2023-04-27T12:35:48;98585.69;;;18.84;76.04
2184;BME280;1098;48.940;8.962;2023-04-27T12:38:17;98582.44;;;16.98;74.25
2184;BME280;1098;48.940;8.962;2023-04-27T12:40:45;98580.63;;;19.22;69.84
2184;BME280;1098;48.940;8.962;2023-04-27T12:43:14;98581.59;;;18.51;73.02
2184;BME280;1098;48.940;8.962;2023-04-27T12:45:42;98576.59;;;18.94;70.08
2184;BME280;1098;48.940;8.962;2023-04-27T12:48:10;98575.88;;;18.38;77.83
2184;BME280;1098;48.940;8.962;2023-04-27T12:50:38;98577.56;;;18.24;68.69
2184;BME280;1098;48.940;8.962;2023-04-27T12:53:06;98568.22;;;18.70;73.48
2184;BME280;1098;48.940;8.962;2023-04-27T12:55:35;98573.69;;;18.65;70.90
2184;BME280;1098;48.940;8.962;2023-04-27T12:58:04;98570.75;;;19.26;77.12
2184;BME280;1098;48.940;8.962;2023-04-27T13:00:32;98569.19;;;19.05;69.35
2184;BME280;1098;48.940;8.962;2023-04-27T13:03:01;98572.00;;;18.90;76.88
2184;BME280;1098;48.940;8.962;2023-04-27T13:05:30;98571.38;;;17.30;76.87
2184;BME280;1098;48.940;8.962;2023-04-27T13:07:58;98561.56;;;18.92;81.59
2184;BME280;1098;48.940;8.962;2023-04-27T13:10:26;98569.31;;;18.08;66.97
2184;BME280;1098;48.940;8.962;2023-04-27T13:12:56;98565.91;;;19.03;64.02
2184;BME280;1098;48.940;8.962;2023-04-27T13:15:25;98563.72;;;19.05;68.77
2184;BME280;1098;48.940;8.962;2023-04-27T13:17:53;98566.94;;;19.17;66.98
2184;BME280;1098;48.940;8.962;2023-04-27T13:20:25;98570.38;;;19.43;75.82
2184;BME280;1098;48.940;8.962;2023-04-27T13:22:53;98574.84;;;19.78;72.60
2184;BME280;1098;48.940;8.962;2023-04-27T13:25:23;98563.28;;;19.37;78.85
2184;BME280;1098;48.940;8.962;2023-04-27T13:27:51;98561.19;;;19.13;73.40
2184;BME280;1098;48.940;8.962;2023-04-27T13:30:21;98557.13;;;19.11;76.38
2184;BME280;1098;48.940;8.962;2023-04-27T13:32:49;98553.38;;;19.46;73.80